sensor_id;sensor_type;location;lat;lon;timestamp;pressure;altitude;pressure_sealevel;temperature;humidity
56594;BME280;42474;51.660;5.824;2023-01-10T00:02:51;101150.0;;;6.9;89.5
56594;BME280;42474;51.660;5.824;2023-01-10T00:07:50;101150.0;;;6.8;89.0
56594;BME280;42474;51.660;5.824;2023-01-10T00:12:50;101150.0;;;6.8;89.0
56594;BME280;42474;51.660;5.824;2023-01-10T00:17:50;101160.0;;;6.7;88.5
56594;BME280;42474;51.660;5.824;2023-01-10T00:22:50;101190.0;;;6.6;88.5
56594;BME280;42474;51.660;5.824;2023-01-10T00:27:52;101190.0;;;6.6;88.5
56594;BME280;42474;51.660;5.824;2023-01-10T00:32:50;101210.0;;;6.5;88.0
56594;BME280;42474;51.660;5.824;2023-01-10T00:37:50;101210.0;;;6.4;88.0
56594;BME280;42474;51.660;5.824;2023-01-10T00:42:50;101220.0;;;6.4;88.0
56594;BME280;42474;51.660;5.824;2023-01-10T00:47:51;101230.0;;;6.4;88.5
56594;BME280;42474;51.660;5.824;2023-01-10T00:52:50;101230.0;;;6.4;88.0
56594;BME280;42474;51.660;5.824;2023-01-10T00:57:50;101230.0;;;6.3;88.0
56594;BME280;42474;51.660;5.824;2023-01-10T01:02:50;101240.0;;;6.2;88.0
56594;BME280;42474;51.660;5.824;2023-01-10T01:07:51;101240.0;;;6.2;88.0
56594;BME280;42474;51.660;5.824;2023-01-10T01:12:50;101240.0;;;6.1;88.0
56594;BME280;42474;51.660;5.824;2023-01-10T01:17:50;101260.0;;;6.1;88.5
56594;BME280;42474;51.660;5.824;2023-01-10T01:22:50;101270.0;;;6.1;88.0
56594;BME280;42474;51.660;5.824;2023-01-10T01:27:50;101290.0;;;6.1;88.0
56594;BME280;42474;51.660;5.824;2023-01-10T01:32:51;101280.0;;;6.0;88.0
56594;BME280;42474;51.660;5.824;2023-01-10T01:37:51;101300.0;;;6.0;88.0
56594;BME280;42474;51.660;5.824;2023-01-10T01:42:50;101300.0;;;6.0;88.0
56594;BME280;42474;51.660;5.824;2023-01-10T01:47:56;101320.0;;;5.9;88.0
56594;BME280;42474;51.660;5.824;2023-01-10T01:52:57;101310.0;;;5.9;88.0
56594;BME280;42474;51.660;5.824;2023-01-10T01:57:52;101330.0;;;5.9;88.5
56594;BME280;42474;51.660;5.824;2023-01-10T02:02:56;101330.0;;;5.9;89.0
56594;BME280;42474;51.660;5.824;2023-01-10T02:07:55;101340.0;;;6.0;89.0
56594;BME280;42474;51.660;5.824;2023-01-10T02:12:54;101340.0;;;6.0;89.0
56594;BME280;42474;51.660;5.824;2023-01-10T02:17:51;101340.0;;;6.1;89.5
56594;BME280;42474;51.660;5.824;2023-01-10T02:24:47;101340.0;;;6.1;89.5
56594;BME280;42474;51.660;5.824;2023-01-10T02:32:24;101340.0;;;6.1;89.5
56594;BME280;42474;51.660;5.824;2023-01-10T02:36:59;101340.0;;;6.1;90.0
56594;BME280;42474;51.660;5.824;2023-01-10T02:42:06;101350.0;;;6.1;89.5
56594;BME280;42474;51.660;5.824;2023-01-10T02:45:37;101350.0;;;6.2;90.0
56594;BME280;42474;51.660;5.824;2023-01-10T02:47:50;101360.0;;;6.2;90.0
56594;BME280;42474;51.660;5.824;2023-01-10T02:52:51;101360.0;;;6.3;90.0
56594;BME280;42474;51.660;5.824;2023-01-10T02:58:44;101360.0;;;6.3;90.0
56594;BME280;42474;51.660;5.824;2023-01-10T03:04:03;101340.0;;;6.4;90.0
56594;BME280;42474;51.660;5.824;2023-01-10T03:08:42;101360.0;;;6.4;90.0
56594;BME280;42474;51.660;5.824;2023-01-10T03:12:58;101370.0;;;6.4;90.0
56594;BME280;42474;51.660;5.824;2023-01-10T03:17:54;101370.0;;;6.4;90.0
56594;BME280;42474;51.660;5.824;2023-01-10T03:22:54;101390.0;;;6.4;90.0
56594;BME280;42474;51.660;5.824;2023-01-10T03:28:05;101410.0;;;6.4;90.0
56594;BME280;42474;51.660;5.824;2023-01-10T03:32:51;101420.0;;;6.3;90.0
56594;BME280;42474;51.660;5.824;2023-01-10T03:37:57;101440.0;;;6.3;90.0
56594;BME280;42474;51.660;5.824;2023-01-10T03:43:11;101440.0;;;6.3;89.5
56594;BME280;42474;51.660;5.824;2023-01-10T03:47:53;101440.0;;;6.3;89.5
56594;BME280;42474;51.660;5.824;2023-01-10T03:52:51;101430.0;;;6.2;89.5
56594;BME280;42474;51.660;5.824;2023-01-10T03:57:51;101430.0;;;6.2;89.5
56594;BME280;42474;51.660;5.824;2023-01-10T04:02:51;101450.0;;;6.2;89.5
56594;BME280;42474;51.660;5.824;2023-01-10T04:07:51;101450.0;;;6.2;89.5
56594;BME280;42474;51.660;5.824;2023-01-10T04:12:50;101470.0;;;6.2;89.5
56594;BME280;42474;51.660;5.824;2023-01-10T04:17:50;101460.0;;;6.2;89.5
56594;BME280;42474;51.660;5.824;2023-01-10T04:22:51;101460.0;;;6.2;89.0
56594;BME280;42474;51.660;5.824;2023-01-10T04:27:51;101460.0;;;6.1;89.0
56594;BME280;42474;51.660;5.824;2023-01-10T04:32:50;101460.0;;;6.0;88.5
56594;BME280;42474;51.660;5.824;2023-01-10T04:37:50;101470.0;;;6.0;88.5
56594;BME280;42474;51.660;5.824;2023-01-10T04:42:51;101470.0;;;6.0;89.0
56594;BME280;42474;51.660;5.824;2023-01-10T04:47:50;101480.0;;;6.0;89.0
56594;BME280;42474;51.660;5.824;2023-01-10T04:52:51;101480.0;;;5.9;89.0
56594;BME280;42474;51.660;5.824;2023-01-10T04:57:50;101480.0;;;5.9;89.0
56594;BME280;42474;51.660;5.824;2023-01-10T05:02:54;101500.0;;;5.9;89.0
56594;BME280;42474;51.660;5.824;2023-01-10T05:07:51;101500.0;;;5.9;89.0
56594;BME280;42474;51.660;5.824;2023-01-10T05:12:51;101500.0;;;5.9;89.0
56594;BME280;42474;51.660;5.824;2023-01-10T05:17:55;101500.0;;;5.9;89.0
56594;BME280;42474;51.660;5.824;2023-01-10T05:22:51;101490.0;;;5.8;89.0
56594;BME280;42474;51.660;5.824;2023-01-10T05:32:51;101510.0;;;5.8;89.0
56594;BME280;42474;51.660;5.824;2023-01-10T05:37:50;101540.0;;;5.8;89.0
56594;BME280;42474;51.660;5.824;2023-01-10T05:42:51;101550.0;;;5.8;89.5
56594;BME280;42474;51.660;5.824;2023-01-10T05:47:51;101560.0;;;5.8;89.5
56594;BME280;42474;51.660;5.824;2023-01-10T05:52:51;101560.0;;;5.9;89.5
56594;BME280;42474;51.660;5.824;2023-01-10T05:57:51;101560.0;;;5.9;89.5
56594;BME280;42474;51.660;5.824;2023-01-10T06:02:53;101560.0;;;5.9;89.0
56594;BME280;42474;51.660;5.824;2023-01-10T06:07:51;101580.0;;;5.9;89.5
56594;BME280;42474;51.660;5.824;2023-01-10T06:12:50;101570.0;;;5.9;89.5
56594;BME280;42474;51.660;5.824;2023-01-10T06:17:50;101560.0;;;6.0;89.5
56594;BME280;42474;51.660;5.824;2023-01-10T06:22:51;101580.0;;;6.0;89.0
56594;BME280;42474;51.660;5.824;2023-01-10T06:27:50;101590.0;;;6.0;89.0
56594;BME280;42474;51.660;5.824;2023-01-10T06:32:51;101580.0;;;6.0;89.5
56594;BME280;42474;51.660;5.824;2023-01-10T06:37:51;101600.0;;;6.1;89.5
56594;BME280;42474;51.660;5.824;2023-01-10T06:42:51;101610.0;;;6.1;89.5
56594;BME280;42474;51.660;5.824;2023-01-10T06:47:50;101610.0;;;6.2;89.5
56594;BME280;42474;51.660;5.824;2023-01-10T06:52:54;101630.0;;;6.3;89.0
56594;BME280;42474;51.660;5.824;2023-01-10T06:57:54;101630.0;;;6.3;89.0
56594;BME280;42474;51.660;5.824;2023-01-10T07:02:51;101630.0;;;6.4;89.0
56594;BME280;42474;51.660;5.824;2023-01-10T07:07:51;101640.0;;;6.4;88.5
56594;BME280;42474;51.660;5.824;2023-01-10T07:12:53;101650.0;;;6.4;88.5
56594;BME280;42474;51.660;5.824;2023-01-10T07:17:51;101650.0;;;6.4;88.0
56594;BME280;42474;51.660;5.824;2023-01-10T07:22:52;101670.0;;;6.4;88.0
56594;BME280;42474;51.660;5.824;2023-01-10T07:27:51;101680.0;;;6.3;87.5
56594;BME280;42474;51.660;5.824;2023-01-10T07:32:52;101680.0;;;6.2;87.5
56594;BME280;42474;51.660;5.824;2023-01-10T07:37:51;101700.0;;;6.2;87.0
56594;BME280;42474;51.660;5.824;2023-01-10T07:42:55;101710.0;;;6.1;87.0
56594;BME280;42474;51.660;5.824;2023-01-10T07:47:54;101730.0;;;6.0;87.0
56594;BME280;42474;51.660;5.824;2023-01-10T07:52:51;101720.0;;;6.0;87.5
56594;BME280;42474;51.660;5.824;2023-01-10T07:57:51;101720.0;;;6.0;87.5
56594;BME280;42474;51.660;5.824;2023-01-10T08:02:52;101730.0;;;6.0;88.0
56594;BME280;42474;51.660;5.824;2023-01-10T08:07:51;101730.0;;;6.1;88.0
56594;BME280;42474;51.660;5.824;2023-01-10T08:12:51;101740.0;;;6.1;88.0
56594;BME280;42474;51.660;5.824;2023-01-10T08:17:51;101750.0;;;6.2;88.0
56594;BME280;42474;51.660;5.824;2023-01-10T08:22:51;101740.0;;;6.3;88.0
56594;BME280;42474;51.660;5.824;2023-01-10T08:27:51;101730.0;;;6.4;88.0
56594;BME280;42474;51.660;5.824;2023-01-10T08:32:51;101750.0;;;6.5;87.5
56594;BME280;42474;51.660;5.824;2023-01-10T08:37:51;101760.0;;;6.5;87.5
56594;BME280;42474;51.660;5.824;2023-01-10T08:42:54;101740.0;;;6.6;87.0
56594;BME280;42474;51.660;5.824;2023-01-10T08:47:51;101750.0;;;6.7;86.5
56594;BME280;42474;51.660;5.824;2023-01-10T08:52:51;101750.0;;;6.8;86.5
56594;BME280;42474;51.660;5.824;2023-01-10T09:07:51;101730.0;;;7.0;85.0
56594;BME280;42474;51.660;5.824;2023-01-10T09:12:51;101730.0;;;7.0;84.5
56594;BME280;42474;51.660;5.824;2023-01-10T09:17:52;101730.0;;;7.0;84.5
56594;BME280;42474;51.660;5.824;2023-01-10T09:22:51;101720.0;;;7.0;84.5
56594;BME280;42474;51.660;5.824;2023-01-10T09:27:55;101720.0;;;7.0;84.5
56594;BME280;42474;51.660;5.824;2023-01-10T09:32:51;101710.0;;;7.1;84.0
56594;BME280;42474;51.660;5.824;2023-01-10T09:37:53;101710.0;;;7.1;84.5
56594;BME280;42474;51.660;5.824;2023-01-10T09:43:42;101720.0;;;7.1;84.0
56594;BME280;42474;51.660;5.824;2023-01-10T09:48:15;101720.0;;;7.1;84.0
56594;BME280;42474;51.660;5.824;2023-01-10T09:53:04;101720.0;;;7.1;83.5
56594;BME280;42474;51.660;5.824;2023-01-10T09:57:51;101730.0;;;7.1;83.5
56594;BME280;42474;51.660;5.824;2023-01-10T10:02:52;101720.0;;;7.2;83.5
56594;BME280;42474;51.660;5.824;2023-01-10T10:07:52;101730.0;;;7.2;84.0
56594;BME280;42474;51.660;5.824;2023-01-10T10:13:46;101740.0;;;7.3;83.5
56594;BME280;42474;51.660;5.824;2023-01-10T10:19:32;101750.0;;;7.3;83.0
56594;BME280;42474;51.660;5.824;2023-01-10T10:25:19;101740.0;;;7.4;83.0
56594;BME280;42474;51.660;5.824;2023-01-10T10:30:29;101710.0;;;7.5;83.0
56594;BME280;42474;51.660;5.824;2023-01-10T10:35:26;101700.0;;;7.5;83.0
56594;BME280;42474;51.660;5.824;2023-01-10T10:38:24;101700.0;;;7.6;82.5
56594;BME280;42474;51.660;5.824;2023-01-10T10:42:52;101680.0;;;7.6;82.0
56594;BME280;42474;51.660;5.824;2023-01-10T10:47:55;101680.0;;;7.7;82.0
56594;BME280;42474;51.660;5.824;2023-01-10T10:52:51;101670.0;;;7.7;81.5
56594;BME280;42474;51.660;5.824;2023-01-10T10:57:51;101670.0;;;7.7;81.0
56594;BME280;42474;51.660;5.824;2023-01-10T11:03:00;101660.0;;;7.7;81.5
56594;BME280;42474;51.660;5.824;2023-01-10T11:07:52;101650.0;;;7.8;81.0
56594;BME280;42474;51.660;5.824;2023-01-10T11:12:51;101650.0;;;7.8;81.0
56594;BME280;42474;51.660;5.824;2023-01-10T11:18:02;101650.0;;;7.9;81.0
56594;BME280;42474;51.660;5.824;2023-01-10T11:22:51;101640.0;;;7.9;81.0
56594;BME280;42474;51.660;5.824;2023-01-10T11:27:59;101640.0;;;8.0;81.0
56594;BME280;42474;51.660;5.824;2023-01-10T11:32:57;101640.0;;;8.0;80.5
56594;BME280;42474;51.660;5.824;2023-01-10T11:38:01;101630.0;;;8.1;80.5
56594;BME280;42474;51.660;5.824;2023-01-10T11:42:52;101630.0;;;8.1;80.5
56594;BME280;42474;51.660;5.824;2023-01-10T11:47:57;101630.0;;;8.1;80.5
56594;BME280;42474;51.660;5.824;2023-01-10T11:52:51;101620.0;;;8.2;80.0
56594;BME280;42474;51.660;5.824;2023-01-10T11:57:55;101610.0;;;8.2;80.0
56594;BME280;42474;51.660;5.824;2023-01-10T12:02:51;101610.0;;;8.3;80.0
56594;BME280;42474;51.660;5.824;2023-01-10T12:07:57;101600.0;;;8.3;79.5
56594;BME280;42474;51.660;5.824;2023-01-10T12:12:52;101590.0;;;8.3;79.5
56594;BME280;42474;51.660;5.824;2023-01-10T12:17:51;101590.0;;;8.3;79.0
56594;BME280;42474;51.660;5.824;2023-01-10T12:22:53;101580.0;;;8.3;79.5
56594;BME280;42474;51.660;5.824;2023-01-10T12:27:52;101580.0;;;8.4;79.0
56594;BME280;42474;51.660;5.824;2023-01-10T12:32:56;101570.0;;;8.4;79.0
56594;BME280;42474;51.660;5.824;2023-01-10T12:37:55;101570.0;;;8.4;79.0
56594;BME280;42474;51.660;5.824;2023-01-10T12:43:16;101550.0;;;8.4;79.0
56594;BME280;42474;51.660;5.824;2023-01-10T12:47:59;101550.0;;;8.4;79.0
56594;BME280;42474;51.660;5.824;2023-01-10T12:53:02;101540.0;;;8.4;79.0
56594;BME280;42474;51.660;5.824;2023-01-10T12:57:54;101530.0;;;8.5;78.5
56594;BME280;42474;51.660;5.824;2023-01-10T13:02:53;101520.0;;;8.5;79.0
56594;BME280;42474;51.660;5.824;2023-01-10T13:07:53;101510.0;;;8.5;79.0
56594;BME280;42474;51.660;5.824;2023-01-10T13:12:58;101510.0;;;8.5;78.5
56594;BME280;42474;51.660;5.824;2023-01-10T13:17:55;101500.0;;;8.6;78.5
56594;BME280;42474;51.660;5.824;2023-01-10T13:22:54;101490.0;;;8.6;78.0
56594;BME280;42474;51.660;5.824;2023-01-10T13:27:54;101480.0;;;8.6;78.0
56594;BME280;42474;51.660;5.824;2023-01-10T13:33:04;101470.0;;;8.6;77.5
56594;BME280;42474;51.660;5.824;2023-01-10T13:37:54;101470.0;;;8.6;77.0
56594;BME280;42474;51.660;5.824;2023-01-10T13:43:35;101450.0;;;8.7;77.0
56594;BME280;42474;51.660;5.824;2023-01-10T13:48:02;101450.0;;;8.7;76.5
56594;BME280;42474;51.660;5.824;2023-01-10T13:52:51;101430.0;;;8.7;76.5
56594;BME280;42474;51.660;5.824;2023-01-10T13:57:55;101420.0;;;8.8;76.0
56594;BME280;42474;51.660;5.824;2023-01-10T14:02:51;101420.0;;;8.8;75.5
56594;BME280;42474;51.660;5.824;2023-01-10T14:07:51;101420.0;;;8.9;75.5
56594;BME280;42474;51.660;5.824;2023-01-10T14:12:53;101410.0;;;8.9;75.5
56594;BME280;42474;51.660;5.824;2023-01-10T14:17:55;101410.0;;;8.9;75.0
56594;BME280;42474;51.660;5.824;2023-01-10T14:23:05;101410.0;;;8.9;75.5
56594;BME280;42474;51.660;5.824;2023-01-10T14:27:51;101420.0;;;8.9;75.0
56594;BME280;42474;51.660;5.824;2023-01-10T14:32:56;101410.0;;;9.0;75.5
56594;BME280;42474;51.660;5.824;2023-01-10T14:37:53;101410.0;;;9.0;76.5
56594;BME280;42474;51.660;5.824;2023-01-10T14:42:53;101390.0;;;8.8;78.0
56594;BME280;42474;51.660;5.824;2023-01-10T14:47:51;101370.0;;;8.7;79.0
56594;BME280;42474;51.660;5.824;2023-01-10T14:52:51;101370.0;;;8.6;80.5
56594;BME280;42474;51.660;5.824;2023-01-10T14:57:52;101360.0;;;8.5;81.5
56594;BME280;42474;51.660;5.824;2023-01-10T15:02:51;101350.0;;;8.5;82.0
56594;BME280;42474;51.660;5.824;2023-01-10T15:07:51;101340.0;;;8.4;83.0
56594;BME280;42474;51.660;5.824;2023-01-10T15:12:52;101320.0;;;8.3;83.5
56594;BME280;42474;51.660;5.824;2023-01-10T15:17:51;101310.0;;;8.1;84.0
56594;BME280;42474;51.660;5.824;2023-01-10T15:22:56;101300.0;;;8.1;85.0
56594;BME280;42474;51.660;5.824;2023-01-10T15:27:51;101290.0;;;8.0;85.0
56594;BME280;42474;51.660;5.824;2023-01-10T15:32:53;101290.0;;;7.9;85.5
56594;BME280;42474;51.660;5.824;2023-01-10T15:37:53;101280.0;;;7.9;86.5
56594;BME280;42474;51.660;5.824;2023-01-10T15:43:09;101270.0;;;7.8;86.5
56594;BME280;42474;51.660;5.824;2023-01-10T15:47:51;101260.0;;;7.7;87.5
56594;BME280;42474;51.660;5.824;2023-01-10T15:52:53;101260.0;;;7.7;87.5
56594;BME280;42474;51.660;5.824;2023-01-10T15:57:51;101260.0;;;7.6;88.5
56594;BME280;42474;51.660;5.824;2023-01-10T16:02:51;101240.0;;;7.6;88.5
56594;BME280;42474;51.660;5.824;2023-01-10T16:07:51;101220.0;;;7.5;88.5
56594;BME280;42474;51.660;5.824;2023-01-10T16:12:52;101220.0;;;7.5;89.0
56594;BME280;42474;51.660;5.824;2023-01-10T16:17:51;101220.0;;;7.5;89.5
56594;BME280;42474;51.660;5.824;2023-01-10T16:22:52;101220.0;;;7.5;90.0
56594;BME280;42474;51.660;5.824;2023-01-10T16:27:51;101210.0;;;7.4;90.5
56594;BME280;42474;51.660;5.824;2023-01-10T16:32:51;101200.0;;;7.4;90.5
56594;BME280;42474;51.660;5.824;2023-01-10T16:37:54;101200.0;;;7.4;91.0
56594;BME280;42474;51.660;5.824;2023-01-10T16:42:51;101190.0;;;7.4;91.0
56594;BME280;42474;51.660;5.824;2023-01-10T16:47:51;101180.0;;;7.3;91.5
56594;BME280;42474;51.660;5.824;2023-01-10T16:52:51;101160.0;;;7.3;92.5
56594;BME280;42474;51.660;5.824;2023-01-10T16:57:51;101150.0;;;7.3;92.5
56594;BME280;42474;51.660;5.824;2023-01-10T17:02:51;101140.0;;;7.3;93.0
56594;BME280;42474;51.660;5.824;2023-01-10T17:07:51;101150.0;;;7.3;93.0
56594;BME280;42474;51.660;5.824;2023-01-10T17:12:51;101150.0;;;7.3;94.0
56594;BME280;42474;51.660;5.824;2023-01-10T17:17:51;101150.0;;;7.2;94.5
56594;BME280;42474;51.660;5.824;2023-01-10T17:22:51;101140.0;;;7.3;94.5
56594;BME280;42474;51.660;5.824;2023-01-10T17:27:51;101120.0;;;7.3;94.5
56594;BME280;42474;51.660;5.824;2023-01-10T17:32:51;101120.0;;;7.3;95.0
56594;BME280;42474;51.660;5.824;2023-01-10T17:37:51;101110.0;;;7.3;95.0
56594;BME280;42474;51.660;5.824;2023-01-10T17:42:51;101090.0;;;7.3;95.0
56594;BME280;42474;51.660;5.824;2023-01-10T17:47:51;101090.0;;;7.4;95.0
56594;BME280;42474;51.660;5.824;2023-01-10T17:52:51;101070.0;;;7.4;95.0
56594;BME280;42474;51.660;5.824;2023-01-10T17:57:51;101080.0;;;7.4;95.0
56594;BME280;42474;51.660;5.824;2023-01-10T18:02:51;101070.0;;;7.5;95.0
56594;BME280;42474;51.660;5.824;2023-01-10T18:07:51;101070.0;;;7.5;95.0
56594;BME280;42474;51.660;5.824;2023-01-10T18:12:51;101040.0;;;7.5;95.0
56594;BME280;42474;51.660;5.824;2023-01-10T18:17:51;101030.0;;;7.6;95.0
56594;BME280;42474;51.660;5.824;2023-01-10T18:22:51;101030.0;;;7.6;95.0
56594;BME280;42474;51.660;5.824;2023-01-10T18:27:51;101030.0;;;7.6;95.0
56594;BME280;42474;51.660;5.824;2023-01-10T18:32:52;101020.0;;;7.7;94.5
56594;BME280;42474;51.660;5.824;2023-01-10T18:37:51;101000.0;;;7.7;94.5
56594;BME280;42474;51.660;5.824;2023-01-10T18:42:51;100990.0;;;7.8;94.5
56594;BME280;42474;51.660;5.824;2023-01-10T18:47:52;101000.0;;;7.8;94.5
56594;BME280;42474;51.660;5.824;2023-01-10T18:52:51;100980.0;;;7.8;94.5
56594;BME280;42474;51.660;5.824;2023-01-10T18:57:51;100980.0;;;7.9;94.5
56594;BME280;42474;51.660;5.824;2023-01-10T19:02:51;100990.0;;;7.9;94.5
56594;BME280;42474;51.660;5.824;2023-01-10T19:07:51;100980.0;;;8.0;94.5
56594;BME280;42474;51.660;5.824;2023-01-10T19:12:51;100970.0;;;8.0;94.0
56594;BME280;42474;51.660;5.824;2023-01-10T19:17:53;100970.0;;;8.1;94.0
56594;BME280;42474;51.660;5.824;2023-01-10T19:22:51;100980.0;;;8.1;94.0
56594;BME280;42474;51.660;5.824;2023-01-10T19:27:51;100970.0;;;8.2;94.5
56594;BME280;42474;51.660;5.824;2023-01-10T19:32:51;100960.0;;;8.2;94.5
56594;BME280;42474;51.660;5.824;2023-01-10T19:37:51;100970.0;;;8.2;94.5
56594;BME280;42474;51.660;5.824;2023-01-10T19:42:51;100950.0;;;8.3;94.5
56594;BME280;42474;51.660;5.824;2023-01-10T19:47:51;100960.0;;;8.3;95.0
56594;BME280;42474;51.660;5.824;2023-01-10T19:52:51;100960.0;;;8.4;95.0
56594;BME280;42474;51.660;5.824;2023-01-10T19:57:51;100940.0;;;8.4;95.0
56594;BME280;42474;51.660;5.824;2023-01-10T20:02:51;100950.0;;;8.5;95.0
56594;BME280;42474;51.660;5.824;2023-01-10T20:07:51;100930.0;;;8.5;95.0
56594;BME280;42474;51.660;5.824;2023-01-10T20:12:51;100920.0;;;8.6;94.5
56594;BME280;42474;51.660;5.824;2023-01-10T20:17:51;100910.0;;;8.6;94.5
56594;BME280;42474;51.660;5.824;2023-01-10T20:22:52;100890.0;;;8.7;94.5
56594;BME280;42474;51.660;5.824;2023-01-10T20:27:51;100900.0;;;8.8;94.5
56594;BME280;42474;51.660;5.824;2023-01-10T20:32:51;100910.0;;;8.8;94.5
56594;BME280;42474;51.660;5.824;2023-01-10T20:37:51;100890.0;;;8.9;94.0
56594;BME280;42474;51.660;5.824;2023-01-10T20:42:51;100900.0;;;8.9;94.0
56594;BME280;42474;51.660;5.824;2023-01-10T20:47:51;100890.0;;;9.0;93.5
56594;BME280;42474;51.660;5.824;2023-01-10T20:52:51;100880.0;;;9.0;93.5
56594;BME280;42474;51.660;5.824;2023-01-10T20:57:51;100880.0;;;9.1;93.5
56594;BME280;42474;51.660;5.824;2023-01-10T21:02:51;100860.0;;;9.2;93.0
56594;BME280;42474;51.660;5.824;2023-01-10T21:07:51;100860.0;;;9.3;93.5
56594;BME280;42474;51.660;5.824;2023-01-10T21:12:51;100860.0;;;9.3;93.5
56594;BME280;42474;51.660;5.824;2023-01-10T21:17:51;100850.0;;;9.3;94.0
56594;BME280;42474;51.660;5.824;2023-01-10T21:22:53;100850.0;;;9.3;94.5
56594;BME280;42474;51.660;5.824;2023-01-10T21:27:51;100830.0;;;9.4;94.5
56594;BME280;42474;51.660;5.824;2023-01-10T21:32:51;100830.0;;;9.4;95.0
56594;BME280;42474;51.660;5.824;2023-01-10T21:37:51;100820.0;;;9.4;95.5
56594;BME280;42474;51.660;5.824;2023-01-10T21:42:52;100810.0;;;9.4;96.0
56594;BME280;42474;51.660;5.824;2023-01-10T21:47:51;100800.0;;;9.4;96.0
56594;BME280;42474;51.660;5.824;2023-01-10T21:52:51;100800.0;;;9.5;96.5
56594;BME280;42474;51.660;5.824;2023-01-10T21:57:51;100790.0;;;9.5;96.5
56594;BME280;42474;51.660;5.824;2023-01-10T22:02:51;100790.0;;;9.5;97.0
56594;BME280;42474;51.660;5.824;2023-01-10T22:07:51;100770.0;;;9.6;97.0
56594;BME280;42474;51.660;5.824;2023-01-10T22:12:51;100780.0;;;9.6;97.0
56594;BME280;42474;51.660;5.824;2023-01-10T22:17:51;100770.0;;;9.6;97.0
56594;BME280;42474;51.660;5.824;2023-01-10T22:22:51;100770.0;;;9.7;97.5
56594;BME280;42474;51.660;5.824;2023-01-10T22:27:51;100780.0;;;9.8;97.5
56594;BME280;42474;51.660;5.824;2023-01-10T22:32:53;100740.0;;;9.8;97.5
56594;BME280;42474;51.660;5.824;2023-01-10T22:37:52;100750.0;;;9.9;97.5
56594;BME280;42474;51.660;5.824;2023-01-10T22:42:51;100750.0;;;9.9;97.0
56594;BME280;42474;51.660;5.824;2023-01-10T22:47:51;100750.0;;;10.0;97.0
56594;BME280;42474;51.660;5.824;2023-01-10T22:52:51;100730.0;;;10.0;97.0
56594;BME280;42474;51.660;5.824;2023-01-10T22:57:51;100720.0;;;10.1;97.0
56594;BME280;42474;51.660;5.824;2023-01-10T23:02:51;100720.0;;;10.2;96.5
56594;BME280;42474;51.660;5.824;2023-01-10T23:07:51;100710.0;;;10.2;96.5
56594;BME280;42474;51.660;5.824;2023-01-10T23:12:51;100710.0;;;10.3;96.0
56594;BME280;42474;51.660;5.824;2023-01-10T23:17:51;100690.0;;;10.3;96.0
56594;BME280;42474;51.660;5.824;2023-01-10T23:22:51;100690.0;;;10.4;96.0
56594;BME280;42474;51.660;5.824;2023-01-10T23:27:52;100680.0;;;10.4;96.0
56594;BME280;42474;51.660;5.824;2023-01-10T23:32:51;100690.0;;;10.5;96.0
56594;BME280;42474;51.660;5.824;2023-01-10T23:37:51;100680.0;;;10.5;96.0
56594;BME280;42474;51.660;5.824;2023-01-10T23:42:51;100690.0;;;10.6;96.0
56594;BME280;42474;51.660;5.824;2023-01-10T23:47:51;100670.0;;;10.6;96.0
56594;BME280;42474;51.660;5.824;2023-01-10T23:52:51;100690.0;;;10.7;95.5
56594;BME280;42474;51.660;5.824;2023-01-10T23:57:51;100680.0;;;10.7;95.5
